createdAt,value
2022-11-29T00:00:08.716Z,7
2022-11-29T00:01:12.297Z,7.1
2022-11-29T00:02:08.913Z,7.1
2022-11-29T00:03:09.971Z,7.1
2022-11-29T00:04:13.858Z,7.1
2022-11-29T00:05:08.892Z,7.1
2022-11-29T00:06:08.897Z,7.1
2022-11-29T00:07:09.603Z,7.1
2022-11-29T00:08:08.946Z,7.1
2022-11-29T00:09:08.999Z,7.1
2022-11-29T00:10:09.075Z,7.1
2022-11-29T00:11:09.407Z,7.1
2022-11-29T00:12:10.145Z,7.1
2022-11-29T00:13:11.277Z,7.1
2022-11-29T00:14:09.090Z,7.1
2022-11-29T00:15:09.147Z,7.1
2022-11-29T00:16:09.226Z,7.1
2022-11-29T00:17:09.233Z,7.1
2022-11-29T00:18:09.269Z,7
2022-11-29T00:19:10.711Z,7.1
2022-11-29T00:20:09.419Z,7.1
2022-11-29T00:21:09.379Z,7.1
2022-11-29T00:22:09.429Z,7.1
2022-11-29T00:23:09.413Z,7.1
2022-11-29T00:24:09.517Z,7.1
2022-11-29T00:25:10.020Z,7.1
2022-11-29T00:26:09.527Z,7.1
2022-11-29T00:27:09.553Z,7.1
2022-11-29T00:28:09.568Z,7.1
2022-11-29T00:29:09.604Z,7.1
2022-11-29T00:30:09.664Z,7.1
2022-11-29T00:31:10.217Z,7.1
2022-11-29T00:32:09.726Z,7.1
2022-11-29T00:33:09.774Z,7.1
2022-11-29T00:34:09.833Z,7.1
2022-11-29T00:35:10.071Z,7.1
2022-11-29T00:36:09.888Z,7.1
2022-11-29T00:37:09.996Z,7
2022-11-29T00:38:10.078Z,7
2022-11-29T00:39:10.142Z,7
2022-11-29T00:40:10.184Z,7.1
2022-11-29T00:41:10.283Z,7.1
2022-11-29T00:42:10.302Z,7
2022-11-29T00:43:10.370Z,7
2022-11-29T00:44:12.873Z,7
2022-11-29T00:45:10.537Z,7.1
2022-11-29T00:46:10.669Z,7
2022-11-29T00:47:10.693Z,7
2022-11-29T00:48:10.826Z,7.1
2022-11-29T00:49:10.844Z,7.1
2022-11-29T00:50:10.938Z,7.1
2022-11-29T00:51:11.057Z,7.1
2022-11-29T00:52:11.112Z,7.1
2022-11-29T00:53:11.213Z,7.1
2022-11-29T00:54:11.238Z,7.1
2022-11-29T00:55:11.548Z,7.1
2022-11-29T00:56:11.287Z,7.1
2022-11-29T00:57:11.311Z,7.1
2022-11-29T00:58:11.354Z,7.1
2022-11-29T00:59:19.054Z,7.1
2022-11-29T01:00:11.417Z,7.1
2022-11-29T01:01:11.557Z,7.1
2022-11-29T01:02:11.508Z,7.1
2022-11-29T01:03:11.623Z,7.1
2022-11-29T01:04:11.658Z,7.1
2022-11-29T01:05:15.990Z,7.1
2022-11-29T01:06:11.743Z,7.1
2022-11-29T01:07:11.726Z,7.1
2022-11-29T01:08:11.815Z,7.1
2022-11-29T01:09:11.888Z,7.1
2022-11-29T01:10:12.001Z,7.1
2022-11-29T01:11:12.051Z,7.1
2022-11-29T01:12:12.519Z,7.1
2022-11-29T01:13:12.115Z,7.1
2022-11-29T01:14:12.218Z,7.1
2022-11-29T01:15:12.193Z,7.1
2022-11-29T01:16:12.274Z,7.1
2022-11-29T01:17:12.311Z,7.1
2022-11-29T01:18:12.395Z,7.1
2022-11-29T03:26:51.285Z,7.1
2022-11-29T03:56:12.933Z,7.1
2022-11-29T04:31:47.691Z,7.1
2022-11-29T07:25:36.778Z,7.2
2022-11-29T07:26:37.780Z,7.2
2022-11-29T07:27:36.841Z,7.2
2022-11-29T07:28:39.295Z,7.2
2022-11-29T07:29:36.948Z,7.2
2022-11-29T07:30:39.755Z,7.2
2022-11-29T07:31:37.807Z,7.3
2022-11-29T07:32:37.734Z,7.2
2022-11-29T07:33:37.232Z,7.2
2022-11-29T07:34:37.450Z,7.2
2022-11-29T07:35:37.316Z,7.2
2022-11-29T07:36:39.533Z,7.2
2022-11-29T07:37:37.443Z,7.2
2022-11-29T07:38:39.415Z,7.3
2022-11-29T07:39:37.565Z,7.3
2022-11-29T07:40:39.809Z,7.3
2022-11-29T07:41:37.718Z,7.3
2022-11-29T07:42:39.609Z,7.3
2022-11-29T07:43:37.839Z,7.3
2022-11-29T07:44:40.236Z,7.3
2022-11-29T07:45:37.940Z,7.3
2022-11-29T07:46:37.994Z,7.3
2022-11-29T07:47:38.691Z,7.3
2022-11-29T07:48:39.606Z,7.3
2022-11-29T08:26:09.039Z,7.3
2022-11-29T08:26:45.869Z,7.3
2022-11-29T08:27:45.934Z,7.3
2022-11-29T08:29:05.332Z,7.3
2022-11-29T08:29:46.107Z,7.3
2022-11-29T08:30:46.152Z,7.3
2022-11-29T08:32:07.281Z,7.3
2022-11-29T08:32:51.183Z,7.4
2022-11-29T08:33:46.584Z,7.4
2022-11-29T08:35:05.681Z,7.4
2022-11-29T08:35:46.386Z,7.4
2022-11-29T08:36:46.484Z,7.4
2022-11-29T08:38:07.142Z,7.3
2022-11-29T08:38:59.350Z,7.4
2022-11-29T10:16:10.733Z,7.4
2022-11-29T12:05:55.669Z,7.8
2022-11-29T12:06:55.691Z,7.8
2022-11-29T12:08:08.320Z,7.9
2022-11-29T12:08:55.730Z,7.9
2022-11-29T12:09:55.792Z,7.9
2022-11-29T12:10:55.842Z,7.9
2022-11-29T12:11:55.880Z,7.8
2022-11-29T12:12:55.964Z,7.9
2022-11-29T12:13:55.992Z,7.8
2022-11-29T12:14:56.010Z,7.8
2022-11-29T12:15:56.095Z,7.8
2022-11-29T12:16:56.106Z,7.8
2022-11-29T12:17:56.157Z,7.8
2022-11-29T12:18:56.225Z,7.8
2022-11-29T12:19:56.268Z,7.8
2022-11-29T12:20:56.338Z,7.8
2022-11-29T12:21:56.382Z,7.8
2022-11-29T12:22:56.410Z,7.8
2022-11-29T12:23:56.488Z,7.8
2022-11-29T12:24:56.552Z,7.8
2022-11-29T12:25:56.654Z,7.8
2022-11-29T12:26:58.196Z,7.8
2022-11-29T12:27:56.686Z,7.8
2022-11-29T12:28:56.747Z,7.8
2022-11-29T12:29:56.849Z,7.7
2022-11-29T12:30:56.986Z,7.7
2022-11-29T12:31:56.882Z,7.7
2022-11-29T12:32:56.955Z,7.8
2022-11-29T12:33:57.009Z,7.7
2022-11-29T12:34:57.399Z,7.7
2022-11-29T12:35:57.130Z,7.7
2022-11-29T12:36:58.382Z,7.7
2022-11-29T12:37:59.256Z,7.7
2022-11-29T12:42:03.829Z,7.7
2022-11-29T12:42:58.634Z,7.7
2022-11-29T12:44:01.912Z,7.8
2022-11-29T12:44:58.156Z,7.7
2022-11-29T12:46:02.201Z,7.7
2022-11-29T12:47:28.063Z,7.7
2022-11-29T12:47:57.858Z,7.7
2022-11-29T14:02:52.308Z,7.5
2022-11-29T14:03:52.307Z,7.4
2022-11-29T14:04:52.644Z,7.5
2022-11-29T14:05:54.916Z,7.5
2022-11-29T14:06:52.582Z,7.5
2022-11-29T14:07:52.625Z,7.5
2022-11-29T14:09:17.586Z,7.4
2022-11-29T14:09:57.694Z,7.5
2022-11-29T14:10:52.746Z,7.5
2022-11-29T14:11:52.843Z,7.5
2022-11-29T14:12:53.398Z,7.5
2022-11-29T14:15:54.200Z,7.6
2022-11-29T14:16:56.867Z,7.5
2022-11-29T14:17:53.670Z,7.6
2022-11-29T14:18:53.455Z,7.6
2022-11-29T14:19:54.108Z,7.6
2022-11-29T14:21:04.931Z,7.6
2022-11-29T14:21:55.152Z,7.6
2022-11-29T14:29:53.450Z,7.6
2022-11-29T14:46:35.586Z,7.6
2022-11-29T14:52:40.636Z,7.6
2022-11-29T15:06:27.292Z,7.5
2022-11-29T15:07:33.016Z,7.5
2022-11-29T15:08:32.245Z,7.5
2022-11-29T15:09:46.669Z,7.6
2022-11-29T15:10:43.101Z,7.6
2022-11-29T15:11:34.854Z,7.6
2022-11-29T15:34:42.387Z,7.3
2022-11-29T15:35:42.439Z,7.3
2022-11-29T15:36:42.316Z,7.3
2022-11-29T15:37:42.588Z,7.4
2022-11-29T15:38:42.517Z,7.3
2022-11-29T15:39:42.769Z,7.3
2022-11-29T15:40:42.607Z,7.3
2022-11-29T15:41:42.896Z,7.4
2022-11-29T15:42:42.767Z,7.4
2022-11-29T15:43:43.763Z,7.4
2022-11-29T15:44:42.795Z,7.3
2022-11-29T15:45:42.805Z,7.4
2022-11-29T15:46:42.887Z,7.4
2022-11-29T15:47:47.898Z,7.3
2022-11-29T15:48:43.025Z,7.3
2022-11-29T15:49:43.088Z,7.3
2022-11-29T15:50:43.129Z,7.3
2022-11-29T15:51:43.151Z,7.2
2022-11-29T15:52:44.009Z,7.2
2022-11-29T15:53:43.243Z,7.2
2022-11-29T15:54:43.605Z,7.2
2022-11-29T15:55:43.384Z,7.2
2022-11-29T15:56:43.410Z,7.1
2022-11-29T15:57:43.500Z,7.1
2022-11-29T15:58:43.531Z,7.1
2022-11-29T15:59:43.534Z,7.1
2022-11-29T16:00:52.369Z,7.1
2022-11-29T16:01:55.577Z,7.1
2022-11-29T16:02:57.318Z,7.1
2022-11-29T16:03:43.935Z,7.1
2022-11-29T16:05:18.621Z,7
2022-11-29T16:05:43.899Z,7
2022-11-29T16:06:57.879Z,7.1
2022-11-29T16:07:56.955Z,7.1
2022-11-29T16:08:53.336Z,7
2022-11-29T16:09:49.132Z,6.9
2022-11-29T16:10:59.119Z,6.9
2022-11-29T16:11:44.280Z,6.9
2022-11-29T16:12:53.159Z,6.9
2022-11-29T16:14:03.073Z,6.8
2022-11-29T16:15:00.033Z,6.8
2022-11-29T16:15:44.483Z,6.8
2022-11-29T16:17:21.634Z,6.9
2022-11-29T16:17:45.320Z,6.9
2022-11-29T16:18:52.509Z,6.8
2022-11-29T16:19:55.011Z,6.8
2022-11-29T16:21:01.319Z,6.8
2022-11-29T17:25:30.783Z,7
2022-11-29T17:26:18.341Z,7
2022-11-29T17:27:31.068Z,7.1
2022-11-29T17:28:18.432Z,7.1
2022-11-29T17:29:32.004Z,7.1
2022-11-29T17:30:18.545Z,7
2022-11-29T17:31:31.491Z,6.9
2022-11-29T17:32:22.030Z,6.9
2022-11-29T17:33:32.103Z,6.9
2022-11-29T17:34:18.809Z,6.9
2022-11-29T17:35:30.689Z,6.8
2022-11-29T17:36:18.886Z,6.8
2022-11-29T17:37:31.152Z,6.9
2022-11-29T17:38:18.958Z,6.8
2022-11-29T17:39:30.858Z,6.8
2022-11-29T17:40:19.087Z,6.8
2022-11-29T17:41:30.704Z,6.8
2022-11-29T17:42:19.192Z,6.8
2022-11-29T17:43:30.685Z,6.7
2022-11-29T17:44:19.307Z,6.7
2022-11-29T17:45:30.474Z,6.6
2022-11-29T17:46:19.439Z,6.7
2022-11-29T17:47:32.248Z,6.7
2022-11-29T17:48:19.582Z,6.7
2022-11-29T17:49:39.312Z,6.7
2022-11-29T17:50:19.737Z,6.7
2022-11-29T17:51:53.974Z,6.7
2022-11-29T17:52:19.813Z,6.7
2022-11-29T17:53:19.851Z,6.8
2022-11-29T17:54:19.850Z,6.8
2022-11-29T17:55:26.941Z,6.8
2022-11-29T17:56:19.892Z,6.8
2022-11-29T17:57:21.068Z,6.8
2022-11-29T17:58:20.592Z,6.7
2022-11-29T17:59:25.041Z,6.7
2022-11-29T18:00:20.227Z,6.6
2022-11-29T18:01:20.605Z,6.6
2022-11-29T18:02:23.673Z,6.6
2022-11-29T18:03:20.426Z,6.6
2022-11-29T18:04:20.392Z,6.6
2022-11-29T18:05:38.869Z,6.6
2022-11-29T18:06:20.645Z,6.6
2022-11-29T18:07:20.581Z,6.6
2022-11-29T18:08:24.165Z,6.6
2022-11-29T18:09:20.813Z,6.6
2022-11-29T18:10:20.689Z,6.5
2022-11-29T18:11:20.730Z,6.5
2022-11-29T18:12:20.768Z,6.6
2022-11-29T18:13:20.827Z,6.6
2022-11-29T18:14:20.856Z,6.5
2022-11-29T18:15:20.888Z,6.5
2022-11-29T18:16:21.054Z,6.5
2022-11-29T18:17:21.569Z,6.5
2022-11-29T18:18:22.829Z,6.6
2022-11-29T18:19:31.295Z,6.5
2022-11-29T18:20:30.309Z,6.5
2022-11-29T18:21:22.422Z,6.6
2022-11-29T18:22:22.814Z,6.6
2022-11-29T18:23:22.373Z,6.6
2022-11-29T18:24:25.820Z,6.6
2022-11-29T18:25:39.725Z,6.6
2022-11-29T18:26:28.515Z,6.6
2022-11-29T18:27:22.499Z,6.6
2022-11-29T18:28:22.704Z,6.7
2022-11-29T18:29:41.763Z,6.7
2022-11-29T18:30:33.097Z,6.7
2022-11-29T18:31:35.765Z,6.7
2022-11-29T18:32:28.632Z,6.8
2022-11-29T18:33:41.671Z,6.7
2022-11-29T18:34:29.096Z,6.7
2022-11-29T18:35:38.205Z,6.7
2022-11-29T18:36:25.057Z,6.7
2022-11-29T18:37:47.704Z,6.7
2022-11-29T18:38:36.063Z,6.8
2022-11-29T18:39:31.758Z,6.8
2022-11-29T18:40:24.021Z,6.7
2022-11-29T18:41:30.280Z,6.7
2022-11-29T18:44:16.444Z,6.7
2022-11-29T18:44:51.017Z,6.7
2022-11-29T18:45:27.347Z,6.7
2022-11-29T18:46:28.710Z,6.7
2022-11-29T18:47:42.904Z,6.7
2022-11-29T18:48:35.256Z,6.6
2022-11-29T18:49:30.351Z,6.7
2022-11-29T18:50:26.106Z,6.7
2022-11-29T18:51:28.350Z,6.7
2022-11-29T18:52:28.971Z,6.7
2022-11-29T18:53:53.536Z,6.7
2022-11-29T18:54:23.137Z,6.6
2022-11-29T18:55:23.229Z,6.7
2022-11-29T18:56:49.013Z,6.7
2022-11-29T18:57:23.307Z,6.7
2022-11-29T18:58:23.365Z,6.7
2022-11-29T18:59:48.383Z,6.6
2022-11-29T19:00:23.500Z,6.6
2022-11-29T19:01:23.572Z,6.6
2022-11-29T19:02:23.619Z,6.5
2022-11-29T19:03:32.053Z,6.5
2022-11-29T19:04:23.703Z,6.5
2022-11-29T19:05:48.468Z,6.5
2022-11-29T19:06:23.806Z,6.4
2022-11-29T19:07:23.941Z,6.4
2022-11-29T19:08:48.421Z,6.4
2022-11-29T19:09:24.010Z,6.4
2022-11-29T19:10:24.063Z,6.4
2022-11-29T19:11:47.559Z,6.4
2022-11-29T19:12:24.151Z,6.4
2022-11-29T19:13:24.194Z,6.4
2022-11-29T19:14:49.933Z,6.3
2022-11-29T19:15:24.341Z,6.4
2022-11-29T19:16:24.480Z,6.4
2022-11-29T19:17:47.585Z,6.4
2022-11-29T19:18:24.463Z,6.4
2022-11-29T19:19:24.506Z,6.4
2022-11-29T19:20:50.831Z,6.5
2022-11-29T19:21:24.990Z,6.5
2022-11-29T19:22:24.723Z,6.4
2022-11-29T19:23:48.918Z,6.5
2022-11-29T19:24:24.827Z,6.4
2022-11-29T19:25:24.925Z,6.3
2022-11-29T19:26:48.107Z,6.3
2022-11-29T19:27:24.970Z,6.3
2022-11-29T19:28:25.044Z,6.3
2022-11-29T19:29:47.018Z,6.3
2022-11-29T19:30:25.135Z,6.3
2022-11-29T19:31:25.369Z,6.3
2022-11-29T19:32:50.486Z,6.4
2022-11-29T19:33:25.292Z,6.4
2022-11-29T19:34:25.375Z,6.4
2022-11-29T19:36:25.753Z,6.4
2022-11-29T19:37:25.544Z,6.4
2022-11-29T20:36:20.840Z,6.4
